sensor_id;sensor_type;location;lat;lon;timestamp;temperature;humidity
1297;DHT22;641;48.492;9.184;2024-01-15T00:01:14;-1.60;99.90
1297;DHT22;641;48.492;9.184;2024-01-15T00:03:40;-1.50;99.90
1297;DHT22;641;48.492;9.184;2024-01-15T00:06:05;-1.50;99.90
1297;DHT22;641;48.492;9.184;2024-01-15T00:08:31;-1.50;99.90
1297;DHT22;641;48.492;9.184;2024-01-15T00:10:56;-1.50;99.90
1297;DHT22;641;48.492;9.184;2024-01-15T00:13:22;-1.50;99.90
1297;DHT22;641;48.492;9.184;2024-01-15T00:15:48;-1.50;99.90
1297;DHT22;641;48.492;9.184;2024-01-15T00:18:13;-1.50;99.90
1297;DHT22;641;48.492;9.184;2024-01-15T00:20:39;-1.50;99.90
1297;DHT22;641;48.492;9.184;2024-01-15T00:23:04;-1.50;99.90
1297;DHT22;641;48.492;9.184;2024-01-15T00:25:30;-1.50;99.90
1297;DHT22;641;48.492;9.184;2024-01-15T00:27:55;-1.50;99.90
1297;DHT22;641;48.492;9.184;2024-01-15T00:30:21;-1.50;99.90
1297;DHT22;641;48.492;9.184;2024-01-15T00:32:46;-1.40;99.90
1297;DHT22;641;48.492;9.184;2024-01-15T00:35:12;-1.40;99.90
1297;DHT22;641;48.492;9.184;2024-01-15T00:37:37;-1.40;99.90
1297;DHT22;641;48.492;9.184;2024-01-15T00:40:04;-1.40;99.90
1297;DHT22;641;48.492;9.184;2024-01-15T00:42:30;-1.40;99.90
1297;DHT22;641;48.492;9.184;2024-01-15T00:44:55;-1.50;99.90
1297;DHT22;641;48.492;9.184;2024-01-15T00:47:21;-1.50;99.90
1297;DHT22;641;48.492;9.184;2024-01-15T00:49:46;-1.40;99.90
1297;DHT22;641;48.492;9.184;2024-01-15T00:52:12;-1.50;99.90
1297;DHT22;641;48.492;9.184;2024-01-15T00:54:37;-1.40;99.90
1297;DHT22;641;48.492;9.184;2024-01-15T00:57:03;-1.40;99.90
1297;DHT22;641;48.492;9.184;2024-01-15T00:59:29;-1.40;99.90
1297;DHT22;641;48.492;9.184;2024-01-15T01:01:54;-1.40;99.90
1297;DHT22;641;48.492;9.184;2024-01-15T01:04:20;-1.40;99.90
1297;DHT22;641;48.492;9.184;2024-01-15T01:06:45;-1.40;99.90
1297;DHT22;641;48.492;9.184;2024-01-15T01:09:11;-1.40;99.90
1297;DHT22;641;48.492;9.184;2024-01-15T01:11:36;-1.30;99.90
1297;DHT22;641;48.492;9.184;2024-01-15T01:14:02;-1.30;99.90
1297;DHT22;641;48.492;9.184;2024-01-15T01:16:28;-1.30;99.90
1297;DHT22;641;48.492;9.184;2024-01-15T01:18:54;-1.30;99.90
1297;DHT22;641;48.492;9.184;2024-01-15T01:21:19;-1.30;99.90
1297;DHT22;641;48.492;9.184;2024-01-15T01:23:45;-1.30;99.90
1297;DHT22;641;48.492;9.184;2024-01-15T01:26:10;-1.30;99.90
1297;DHT22;641;48.492;9.184;2024-01-15T01:28:36;-1.20;99.90
1297;DHT22;641;48.492;9.184;2024-01-15T01:31:01;-1.20;99.90
1297;DHT22;641;48.492;9.184;2024-01-15T01:33:27;-1.20;99.90
1297;DHT22;641;48.492;9.184;2024-01-15T01:35:52;-1.20;99.90
1297;DHT22;641;48.492;9.184;2024-01-15T01:38:18;-1.20;99.90
1297;DHT22;641;48.492;9.184;2024-01-15T01:40:44;-1.20;99.90
1297;DHT22;641;48.492;9.184;2024-01-15T01:43:09;-1.20;99.90
1297;DHT22;641;48.492;9.184;2024-01-15T01:45:35;-1.20;99.90
1297;DHT22;641;48.492;9.184;2024-01-15T01:48:01;-1.20;99.90
1297;DHT22;641;48.492;9.184;2024-01-15T01:50:28;-1.10;99.90
1297;DHT22;641;48.492;9.184;2024-01-15T01:52:55;-1.20;99.90
1297;DHT22;641;48.492;9.184;2024-01-15T01:55:22;-1.20;99.90
1297;DHT22;641;48.492;9.184;2024-01-15T01:57:50;-1.20;99.90
1297;DHT22;641;48.492;9.184;2024-01-15T02:00:16;-1.20;99.90
1297;DHT22;641;48.492;9.184;2024-01-15T02:02:42;-1.20;99.90
1297;DHT22;641;48.492;9.184;2024-01-15T02:05:08;-1.20;99.90
1297;DHT22;641;48.492;9.184;2024-01-15T02:07:34;-1.20;99.90
1297;DHT22;641;48.492;9.184;2024-01-15T02:10:01;-1.20;99.90
1297;DHT22;641;48.492;9.184;2024-01-15T02:12:26;-1.20;99.90
1297;DHT22;641;48.492;9.184;2024-01-15T02:14:52;-1.20;99.90
1297;DHT22;641;48.492;9.184;2024-01-15T02:17:18;-1.20;99.90
1297;DHT22;641;48.492;9.184;2024-01-15T02:19:43;-1.10;99.90
1297;DHT22;641;48.492;9.184;2024-01-15T02:22:09;-1.10;99.90
1297;DHT22;641;48.492;9.184;2024-01-15T02:24:34;-1.10;99.90
1297;DHT22;641;48.492;9.184;2024-01-15T02:27:00;-1.20;99.90
1297;DHT22;641;48.492;9.184;2024-01-15T02:29:26;-1.20;99.90
1297;DHT22;641;48.492;9.184;2024-01-15T02:31:51;-1.20;99.90
1297;DHT22;641;48.492;9.184;2024-01-15T02:34:17;-1.20;99.90
1297;DHT22;641;48.492;9.184;2024-01-15T02:36:42;-1.20;99.90
1297;DHT22;641;48.492;9.184;2024-01-15T02:39:08;-1.20;99.90
1297;DHT22;641;48.492;9.184;2024-01-15T02:41:33;-1.20;99.90
1297;DHT22;641;48.492;9.184;2024-01-15T02:43:59;-1.30;99.90
1297;DHT22;641;48.492;9.184;2024-01-15T02:46:25;-1.30;99.90
1297;DHT22;641;48.492;9.184;2024-01-15T02:48:50;-1.40;99.90
1297;DHT22;641;48.492;9.184;2024-01-15T02:51:16;-1.40;99.90
1297;DHT22;641;48.492;9.184;2024-01-15T02:53:41;-1.40;99.90
1297;DHT22;641;48.492;9.184;2024-01-15T02:56:07;-1.50;99.90
1297;DHT22;641;48.492;9.184;2024-01-15T02:58:33;-1.40;99.90
1297;DHT22;641;48.492;9.184;2024-01-15T03:00:58;-1.40;99.90
1297;DHT22;641;48.492;9.184;2024-01-15T03:03:24;-1.40;99.90
1297;DHT22;641;48.492;9.184;2024-01-15T03:05:49;-1.50;99.90
1297;DHT22;641;48.492;9.184;2024-01-15T03:08:15;-1.50;99.90
1297;DHT22;641;48.492;9.184;2024-01-15T03:10:40;-1.40;99.90
1297;DHT22;641;48.492;9.184;2024-01-15T03:13:06;-1.40;99.90
1297;DHT22;641;48.492;9.184;2024-01-15T03:15:31;-1.30;99.90
1297;DHT22;641;48.492;9.184;2024-01-15T03:17:57;-1.30;99.90
1297;DHT22;641;48.492;9.184;2024-01-15T03:20:22;-1.20;99.90
1297;DHT22;641;48.492;9.184;2024-01-15T03:22:48;-1.20;99.90
1297;DHT22;641;48.492;9.184;2024-01-15T03:25:14;-1.20;99.90
1297;DHT22;641;48.492;9.184;2024-01-15T03:27:40;-1.20;99.90
1297;DHT22;641;48.492;9.184;2024-01-15T03:30:06;-1.30;99.90
1297;DHT22;641;48.492;9.184;2024-01-15T03:32:31;-1.30;99.90
1297;DHT22;641;48.492;9.184;2024-01-15T03:34:57;-1.30;99.90
1297;DHT22;641;48.492;9.184;2024-01-15T03:37:23;-1.30;99.90
1297;DHT22;641;48.492;9.184;2024-01-15T03:39:48;-1.20;99.90
1297;DHT22;641;48.492;9.184;2024-01-15T03:42:14;-1.20;99.90
1297;DHT22;641;48.492;9.184;2024-01-15T03:44:40;-1.20;99.90
1297;DHT22;641;48.492;9.184;2024-01-15T03:47:05;-1.10;99.90
1297;DHT22;641;48.492;9.184;2024-01-15T03:49:31;-1.10;99.90
1297;DHT22;641;48.492;9.184;2024-01-15T03:51:56;-1.10;99.90
1297;DHT22;641;48.492;9.184;2024-01-15T03:54:22;-1.10;99.90
1297;DHT22;641;48.492;9.184;2024-01-15T03:56:47;-1.10;99.90
1297;DHT22;641;48.492;9.184;2024-01-15T03:59:13;-1.10;99.90
1297;DHT22;641;48.492;9.184;2024-01-15T04:01:38;-1.10;99.90
1297;DHT22;641;48.492;9.184;2024-01-15T04:04:04;-1.10;99.90
1297;DHT22;641;48.492;9.184;2024-01-15T04:06:29;-1.00;99.90
1297;DHT22;641;48.492;9.184;2024-01-15T04:08:55;-1.00;99.90
1297;DHT22;641;48.492;9.184;2024-01-15T04:11:20;-1.10;99.90
1297;DHT22;641;48.492;9.184;2024-01-15T04:13:47;-1.00;99.90
1297;DHT22;641;48.492;9.184;2024-01-15T04:16:13;-1.10;99.90
1297;DHT22;641;48.492;9.184;2024-01-15T04:18:39;-1.10;99.90
1297;DHT22;641;48.492;9.184;2024-01-15T04:21:05;-1.00;99.90
1297;DHT22;641;48.492;9.184;2024-01-15T04:23:32;-1.10;99.90
1297;DHT22;641;48.492;9.184;2024-01-15T04:25:58;-1.10;99.90
1297;DHT22;641;48.492;9.184;2024-01-15T04:28:23;-1.10;99.90
1297;DHT22;641;48.492;9.184;2024-01-15T04:30:49;-1.10;99.90
1297;DHT22;641;48.492;9.184;2024-01-15T04:33:14;-1.10;99.90
1297;DHT22;641;48.492;9.184;2024-01-15T04:35:40;-1.00;99.90
1297;DHT22;641;48.492;9.184;2024-01-15T04:38:06;-1.00;99.90
1297;DHT22;641;48.492;9.184;2024-01-15T04:40:31;-1.10;99.90
1297;DHT22;641;48.492;9.184;2024-01-15T04:42:57;-1.10;99.90
1297;DHT22;641;48.492;9.184;2024-01-15T04:45:22;-1.10;99.90
1297;DHT22;641;48.492;9.184;2024-01-15T04:47:53;-1.00;99.90
1297;DHT22;641;48.492;9.184;2024-01-15T04:50:19;-1.00;99.90
1297;DHT22;641;48.492;9.184;2024-01-15T04:52:44;-1.00;99.90
1297;DHT22;641;48.492;9.184;2024-01-15T04:55:10;-1.00;99.90
1297;DHT22;641;48.492;9.184;2024-01-15T04:57:35;-0.90;99.90
1297;DHT22;641;48.492;9.184;2024-01-15T05:00:01;-0.90;99.90
1297;DHT22;641;48.492;9.184;2024-01-15T05:02:26;-1.00;99.90
1297;DHT22;641;48.492;9.184;2024-01-15T05:04:52;-1.00;99.90
1297;DHT22;641;48.492;9.184;2024-01-15T05:07:17;-0.90;99.90
1297;DHT22;641;48.492;9.184;2024-01-15T05:09:43;-0.90;99.90
1297;DHT22;641;48.492;9.184;2024-01-15T05:12:08;-0.90;99.90
1297;DHT22;641;48.492;9.184;2024-01-15T05:14:34;-0.90;99.90
1297;DHT22;641;48.492;9.184;2024-01-15T05:16:59;-0.90;99.90
1297;DHT22;641;48.492;9.184;2024-01-15T05:19:25;-0.90;99.90
1297;DHT22;641;48.492;9.184;2024-01-15T05:21:51;-0.90;99.90
1297;DHT22;641;48.492;9.184;2024-01-15T05:24:16;-0.90;99.90
1297;DHT22;641;48.492;9.184;2024-01-15T05:26:42;-1.00;99.90
1297;DHT22;641;48.492;9.184;2024-01-15T05:29:07;-0.90;99.90
1297;DHT22;641;48.492;9.184;2024-01-15T05:31:33;-0.90;99.90
1297;DHT22;641;48.492;9.184;2024-01-15T05:33:58;-1.00;99.90
1297;DHT22;641;48.492;9.184;2024-01-15T05:36:24;-0.90;99.90
1297;DHT22;641;48.492;9.184;2024-01-15T05:38:49;-0.90;99.90
1297;DHT22;641;48.492;9.184;2024-01-15T05:41:15;-0.80;99.90
1297;DHT22;641;48.492;9.184;2024-01-15T05:43:40;-0.90;99.90
1297;DHT22;641;48.492;9.184;2024-01-15T05:46:06;-1.00;99.90
1297;DHT22;641;48.492;9.184;2024-01-15T05:48:31;-1.00;99.90
1297;DHT22;641;48.492;9.184;2024-01-15T05:50:57;-1.00;99.90
1297;DHT22;641;48.492;9.184;2024-01-15T05:53:23;-1.00;99.90
1297;DHT22;641;48.492;9.184;2024-01-15T05:55:48;-0.90;99.90
1297;DHT22;641;48.492;9.184;2024-01-15T05:58:14;-0.90;99.90
1297;DHT22;641;48.492;9.184;2024-01-15T06:00:39;-0.90;99.90
1297;DHT22;641;48.492;9.184;2024-01-15T06:03:05;-0.90;99.90
1297;DHT22;641;48.492;9.184;2024-01-15T06:05:30;-0.90;99.90
1297;DHT22;641;48.492;9.184;2024-01-15T06:07:56;-0.90;99.90
1297;DHT22;641;48.492;9.184;2024-01-15T06:10:21;-0.90;99.90
1297;DHT22;641;48.492;9.184;2024-01-15T06:12:47;-0.80;99.90
1297;DHT22;641;48.492;9.184;2024-01-15T06:15:12;-0.90;99.90
1297;DHT22;641;48.492;9.184;2024-01-15T06:17:38;-0.80;99.90
1297;DHT22;641;48.492;9.184;2024-01-15T06:20:04;-0.90;99.90
1297;DHT22;641;48.492;9.184;2024-01-15T06:22:30;-0.80;99.90
1297;DHT22;641;48.492;9.184;2024-01-15T06:24:55;-0.90;99.90
1297;DHT22;641;48.492;9.184;2024-01-15T06:27:21;-0.90;99.90
1297;DHT22;641;48.492;9.184;2024-01-15T06:29:47;-0.80;99.90
1297;DHT22;641;48.492;9.184;2024-01-15T06:32:13;-0.80;99.90
1297;DHT22;641;48.492;9.184;2024-01-15T06:34:39;-0.80;99.90
1297;DHT22;641;48.492;9.184;2024-01-15T06:37:05;-0.80;99.90
1297;DHT22;641;48.492;9.184;2024-01-15T06:39:30;-0.80;99.90
1297;DHT22;641;48.492;9.184;2024-01-15T06:41:56;-0.80;99.90
1297;DHT22;641;48.492;9.184;2024-01-15T06:44:21;-0.80;99.90
1297;DHT22;641;48.492;9.184;2024-01-15T06:46:47;-0.90;99.90
1297;DHT22;641;48.492;9.184;2024-01-15T06:49:13;-0.90;99.90
1297;DHT22;641;48.492;9.184;2024-01-15T06:51:38;-0.90;99.90
1297;DHT22;641;48.492;9.184;2024-01-15T06:54:04;-0.90;99.90
1297;DHT22;641;48.492;9.184;2024-01-15T06:56:31;-0.90;99.90
1297;DHT22;641;48.492;9.184;2024-01-15T06:58:57;-0.80;99.90
1297;DHT22;641;48.492;9.184;2024-01-15T07:01:23;-0.90;99.90
1297;DHT22;641;48.492;9.184;2024-01-15T07:03:48;-0.90;99.90
1297;DHT22;641;48.492;9.184;2024-01-15T07:06:14;-0.90;99.90
1297;DHT22;641;48.492;9.184;2024-01-15T07:08:40;-0.90;99.90
1297;DHT22;641;48.492;9.184;2024-01-15T07:11:06;-0.90;99.90
1297;DHT22;641;48.492;9.184;2024-01-15T07:13:32;-0.80;99.90
1297;DHT22;641;48.492;9.184;2024-01-15T07:15:58;-0.80;99.90
1297;DHT22;641;48.492;9.184;2024-01-15T07:18:23;-0.80;99.90
1297;DHT22;641;48.492;9.184;2024-01-15T07:20:49;-0.80;99.90
1297;DHT22;641;48.492;9.184;2024-01-15T07:23:15;-0.80;99.90
1297;DHT22;641;48.492;9.184;2024-01-15T07:25:41;-0.80;99.90
1297;DHT22;641;48.492;9.184;2024-01-15T07:28:06;-0.80;99.90
1297;DHT22;641;48.492;9.184;2024-01-15T07:30:32;-0.70;99.90
1297;DHT22;641;48.492;9.184;2024-01-15T07:32:57;-0.70;99.90
1297;DHT22;641;48.492;9.184;2024-01-15T07:35:23;-0.60;99.90
1297;DHT22;641;48.492;9.184;2024-01-15T07:37:49;-0.70;99.90
1297;DHT22;641;48.492;9.184;2024-01-15T07:40:14;-0.70;99.90
1297;DHT22;641;48.492;9.184;2024-01-15T07:42:40;-0.60;99.90
1297;DHT22;641;48.492;9.184;2024-01-15T07:45:08;-0.60;99.90
1297;DHT22;641;48.492;9.184;2024-01-15T07:47:33;-0.60;99.90
1297;DHT22;641;48.492;9.184;2024-01-15T07:49:59;-0.60;99.90
1297;DHT22;641;48.492;9.184;2024-01-15T07:52:24;-0.60;99.90
1297;DHT22;641;48.492;9.184;2024-01-15T07:54:50;-0.60;99.90
1297;DHT22;641;48.492;9.184;2024-01-15T07:57:16;-0.50;99.90
1297;DHT22;641;48.492;9.184;2024-01-15T07:59:41;-0.50;99.90
1297;DHT22;641;48.492;9.184;2024-01-15T08:02:07;-0.50;99.90
1297;DHT22;641;48.492;9.184;2024-01-15T08:04:32;-0.50;99.90
1297;DHT22;641;48.492;9.184;2024-01-15T08:06:58;-0.40;99.30
1297;DHT22;641;48.492;9.184;2024-01-15T08:09:24;-0.40;99.40
1297;DHT22;641;48.492;9.184;2024-01-15T08:11:49;-0.30;99.70
1297;DHT22;641;48.492;9.184;2024-01-15T08:14:15;-0.30;99.50
1297;DHT22;641;48.492;9.184;2024-01-15T08:16:40;-0.30;99.60
1297;DHT22;641;48.492;9.184;2024-01-15T08:19:06;-0.30;99.00
1297;DHT22;641;48.492;9.184;2024-01-15T08:21:32;-0.20;98.80
1297;DHT22;641;48.492;9.184;2024-01-15T08:23:59;-0.20;98.80
1297;DHT22;641;48.492;9.184;2024-01-15T08:26:25;-0.20;99.20
1297;DHT22;641;48.492;9.184;2024-01-15T08:28:51;-0.10;98.80
1297;DHT22;641;48.492;9.184;2024-01-15T08:31:17;-0.10;98.30
1297;DHT22;641;48.492;9.184;2024-01-15T08:33:42;-0.10;97.90
1297;DHT22;641;48.492;9.184;2024-01-15T08:36:09;-0.10;98.40
1297;DHT22;641;48.492;9.184;2024-01-15T08:38:35;0.00;98.90
1297;DHT22;641;48.492;9.184;2024-01-15T08:41:01;0.00;98.00
1297;DHT22;641;48.492;9.184;2024-01-15T08:43:27;0.00;98.00
1297;DHT22;641;48.492;9.184;2024-01-15T08:45:53;0.10;97.80
1297;DHT22;641;48.492;9.184;2024-01-15T08:48:18;0.10;97.90
1297;DHT22;641;48.492;9.184;2024-01-15T08:50:44;0.10;97.40
1297;DHT22;641;48.492;9.184;2024-01-15T08:53:13;0.20;97.90
1297;DHT22;641;48.492;9.184;2024-01-15T08:55:38;0.20;96.80
1297;DHT22;641;48.492;9.184;2024-01-15T08:58:04;0.20;96.80
1297;DHT22;641;48.492;9.184;2024-01-15T09:00:30;0.30;96.30
1297;DHT22;641;48.492;9.184;2024-01-15T09:02:56;0.30;96.30
1297;DHT22;641;48.492;9.184;2024-01-15T09:05:22;0.30;95.90
1297;DHT22;641;48.492;9.184;2024-01-15T09:07:47;0.40;96.00
1297;DHT22;641;48.492;9.184;2024-01-15T09:10:13;0.40;96.00
1297;DHT22;641;48.492;9.184;2024-01-15T09:12:39;0.40;96.20
1297;DHT22;641;48.492;9.184;2024-01-15T09:15:05;0.50;96.10
1297;DHT22;641;48.492;9.184;2024-01-15T09:17:32;0.50;95.90
1297;DHT22;641;48.492;9.184;2024-01-15T09:19:57;0.50;95.70
1297;DHT22;641;48.492;9.184;2024-01-15T09:22:23;0.50;95.80
1297;DHT22;641;48.492;9.184;2024-01-15T09:24:48;0.50;95.80
1297;DHT22;641;48.492;9.184;2024-01-15T09:27:14;0.60;95.40
1297;DHT22;641;48.492;9.184;2024-01-15T09:29:41;0.60;95.40
1297;DHT22;641;48.492;9.184;2024-01-15T09:32:07;0.60;95.00
1297;DHT22;641;48.492;9.184;2024-01-15T09:34:34;0.60;94.90
1297;DHT22;641;48.492;9.184;2024-01-15T09:36:59;0.70;95.20
1297;DHT22;641;48.492;9.184;2024-01-15T09:39:26;0.80;95.00
1297;DHT22;641;48.492;9.184;2024-01-15T09:41:52;0.80;94.70
1297;DHT22;641;48.492;9.184;2024-01-15T09:44:19;0.80;94.50
1297;DHT22;641;48.492;9.184;2024-01-15T09:46:45;0.80;94.70
1297;DHT22;641;48.492;9.184;2024-01-15T09:49:12;0.80;94.50
1297;DHT22;641;48.492;9.184;2024-01-15T09:51:39;0.90;94.90
1297;DHT22;641;48.492;9.184;2024-01-15T09:54:05;1.00;94.70
1297;DHT22;641;48.492;9.184;2024-01-15T09:56:31;1.00;94.50
1297;DHT22;641;48.492;9.184;2024-01-15T09:58:57;1.00;94.20
1297;DHT22;641;48.492;9.184;2024-01-15T10:01:23;1.10;94.30
1297;DHT22;641;48.492;9.184;2024-01-15T10:03:50;1.20;94.70
1297;DHT22;641;48.492;9.184;2024-01-15T10:06:17;1.20;94.40
1297;DHT22;641;48.492;9.184;2024-01-15T10:08:47;1.20;94.30
1297;DHT22;641;48.492;9.184;2024-01-15T10:11:13;1.20;94.20
1297;DHT22;641;48.492;9.184;2024-01-15T10:13:39;1.30;94.40
1297;DHT22;641;48.492;9.184;2024-01-15T10:16:05;1.30;94.30
1297;DHT22;641;48.492;9.184;2024-01-15T10:18:31;1.30;94.20
1297;DHT22;641;48.492;9.184;2024-01-15T10:20:57;1.40;94.10
1297;DHT22;641;48.492;9.184;2024-01-15T10:23:25;1.40;94.00
1297;DHT22;641;48.492;9.184;2024-01-15T10:25:51;1.30;93.70
1297;DHT22;641;48.492;9.184;2024-01-15T10:28:19;1.30;93.90
1297;DHT22;641;48.492;9.184;2024-01-15T10:30:44;1.30;94.10
1297;DHT22;641;48.492;9.184;2024-01-15T10:33:10;1.30;93.80
1297;DHT22;641;48.492;9.184;2024-01-15T10:35:37;1.40;94.00
1297;DHT22;641;48.492;9.184;2024-01-15T10:38:03;1.40;93.90
1297;DHT22;641;48.492;9.184;2024-01-15T10:40:30;1.50;93.70
1297;DHT22;641;48.492;9.184;2024-01-15T10:42:56;1.50;93.90
1297;DHT22;641;48.492;9.184;2024-01-15T10:45:23;1.60;93.50
1297;DHT22;641;48.492;9.184;2024-01-15T10:47:49;1.60;93.40
1297;DHT22;641;48.492;9.184;2024-01-15T10:50:14;1.50;93.50
1297;DHT22;641;48.492;9.184;2024-01-15T10:52:41;1.60;93.30
1297;DHT22;641;48.492;9.184;2024-01-15T10:55:09;1.60;92.70
1297;DHT22;641;48.492;9.184;2024-01-15T10:57:36;1.50;92.80
1297;DHT22;641;48.492;9.184;2024-01-15T11:00:02;1.50;92.90
1297;DHT22;641;48.492;9.184;2024-01-15T11:02:35;1.50;93.00
1297;DHT22;641;48.492;9.184;2024-01-15T11:05:00;1.50;92.70
1297;DHT22;641;48.492;9.184;2024-01-15T11:07:26;1.50;92.90
1297;DHT22;641;48.492;9.184;2024-01-15T11:09:52;1.50;93.00
1297;DHT22;641;48.492;9.184;2024-01-15T11:12:18;1.50;93.00
1297;DHT22;641;48.492;9.184;2024-01-15T11:14:49;1.60;93.30
1297;DHT22;641;48.492;9.184;2024-01-15T11:17:15;1.50;92.70
1297;DHT22;641;48.492;9.184;2024-01-15T11:22:09;1.50;92.90
1297;DHT22;641;48.492;9.184;2024-01-15T11:24:39;1.50;93.00
1297;DHT22;641;48.492;9.184;2024-01-15T11:27:06;1.50;93.10
1297;DHT22;641;48.492;9.184;2024-01-15T11:29:34;1.50;93.40
1297;DHT22;641;48.492;9.184;2024-01-15T11:32:01;1.50;93.60
1297;DHT22;641;48.492;9.184;2024-01-15T11:34:50;1.60;93.90
1297;DHT22;641;48.492;9.184;2024-01-15T11:37:16;1.60;93.70
1297;DHT22;641;48.492;9.184;2024-01-15T11:39:44;1.50;94.10
1297;DHT22;641;48.492;9.184;2024-01-15T11:42:11;1.50;94.00
1297;DHT22;641;48.492;9.184;2024-01-15T11:44:38;1.60;94.60
1297;DHT22;641;48.492;9.184;2024-01-15T11:47:05;1.50;94.30
1297;DHT22;641;48.492;9.184;2024-01-15T11:51:57;1.50;95.30
1297;DHT22;641;48.492;9.184;2024-01-15T11:54:24;1.40;95.50
1297;DHT22;641;48.492;9.184;2024-01-15T11:56:50;1.40;96.10
1297;DHT22;641;48.492;9.184;2024-01-15T11:59:16;1.20;96.40
1297;DHT22;641;48.492;9.184;2024-01-15T12:01:42;1.20;96.40
1297;DHT22;641;48.492;9.184;2024-01-15T12:04:08;1.30;96.80
1297;DHT22;641;48.492;9.184;2024-01-15T12:06:34;1.30;96.50
1297;DHT22;641;48.492;9.184;2024-01-15T12:09:07;1.40;96.80
1297;DHT22;641;48.492;9.184;2024-01-15T12:11:34;1.40;96.40
1297;DHT22;641;48.492;9.184;2024-01-15T12:14:01;1.50;96.70
1297;DHT22;641;48.492;9.184;2024-01-15T12:16:27;1.50;96.50
1297;DHT22;641;48.492;9.184;2024-01-15T12:18:53;1.60;96.90
1297;DHT22;641;48.492;9.184;2024-01-15T12:21:18;1.60;96.70
1297;DHT22;641;48.492;9.184;2024-01-15T12:23:46;1.50;96.90
1297;DHT22;641;48.492;9.184;2024-01-15T12:26:13;1.60;96.70
1297;DHT22;641;48.492;9.184;2024-01-15T12:28:39;1.50;96.60
1297;DHT22;641;48.492;9.184;2024-01-15T12:31:05;1.40;96.50
1297;DHT22;641;48.492;9.184;2024-01-15T12:33:31;1.50;96.30
1297;DHT22;641;48.492;9.184;2024-01-15T12:35:56;1.50;96.60
1297;DHT22;641;48.492;9.184;2024-01-15T12:38:22;1.40;96.80
1297;DHT22;641;48.492;9.184;2024-01-15T12:40:48;1.50;96.60
1297;DHT22;641;48.492;9.184;2024-01-15T12:43:14;1.50;96.50
1297;DHT22;641;48.492;9.184;2024-01-15T12:45:40;1.50;96.80
1297;DHT22;641;48.492;9.184;2024-01-15T12:48:06;1.60;96.70
1297;DHT22;641;48.492;9.184;2024-01-15T12:50:33;1.50;97.40
1297;DHT22;641;48.492;9.184;2024-01-15T12:52:59;1.60;97.70
1297;DHT22;641;48.492;9.184;2024-01-15T12:55:27;1.50;97.90
1297;DHT22;641;48.492;9.184;2024-01-15T12:57:53;1.50;97.90
1297;DHT22;641;48.492;9.184;2024-01-15T13:00:20;1.40;97.20
1297;DHT22;641;48.492;9.184;2024-01-15T13:02:45;1.40;97.20
1297;DHT22;641;48.492;9.184;2024-01-15T13:05:12;1.40;97.60
1297;DHT22;641;48.492;9.184;2024-01-15T13:07:38;1.40;97.60
1297;DHT22;641;48.492;9.184;2024-01-15T13:10:04;1.30;98.20
1297;DHT22;641;48.492;9.184;2024-01-15T13:12:30;1.30;98.30
1297;DHT22;641;48.492;9.184;2024-01-15T13:14:57;1.30;98.90
1297;DHT22;641;48.492;9.184;2024-01-15T13:17:23;1.20;98.90
1297;DHT22;641;48.492;9.184;2024-01-15T13:19:49;1.20;99.20
1297;DHT22;641;48.492;9.184;2024-01-15T13:22:14;1.20;98.70
1297;DHT22;641;48.492;9.184;2024-01-15T13:24:40;1.20;98.80
1297;DHT22;641;48.492;9.184;2024-01-15T13:27:05;1.20;99.00
1297;DHT22;641;48.492;9.184;2024-01-15T13:29:32;1.10;99.50
1297;DHT22;641;48.492;9.184;2024-01-15T13:31:58;1.10;99.90
1297;DHT22;641;48.492;9.184;2024-01-15T13:34:23;1.10;99.90
1297;DHT22;641;48.492;9.184;2024-01-15T13:36:49;1.00;99.90
1297;DHT22;641;48.492;9.184;2024-01-15T13:39:18;1.00;99.90
1297;DHT22;641;48.492;9.184;2024-01-15T13:41:46;0.90;99.90
1297;DHT22;641;48.492;9.184;2024-01-15T13:44:12;0.90;99.90
1297;DHT22;641;48.492;9.184;2024-01-15T13:46:37;0.80;99.90
1297;DHT22;641;48.492;9.184;2024-01-15T13:49:03;0.70;99.90
1297;DHT22;641;48.492;9.184;2024-01-15T13:51:31;0.70;99.90
1297;DHT22;641;48.492;9.184;2024-01-15T13:53:57;0.60;99.90
1297;DHT22;641;48.492;9.184;2024-01-15T13:56:23;0.70;99.90
1297;DHT22;641;48.492;9.184;2024-01-15T13:58:49;0.70;99.90
1297;DHT22;641;48.492;9.184;2024-01-15T14:01:15;0.70;99.90
1297;DHT22;641;48.492;9.184;2024-01-15T14:03:41;0.70;99.90
1297;DHT22;641;48.492;9.184;2024-01-15T14:06:06;0.70;99.90
1297;DHT22;641;48.492;9.184;2024-01-15T14:08:35;0.70;99.90
1297;DHT22;641;48.492;9.184;2024-01-15T14:11:01;0.60;99.90
1297;DHT22;641;48.492;9.184;2024-01-15T14:13:26;0.50;99.90
1297;DHT22;641;48.492;9.184;2024-01-15T14:15:52;0.50;99.90
1297;DHT22;641;48.492;9.184;2024-01-15T14:18:17;0.40;99.90
1297;DHT22;641;48.492;9.184;2024-01-15T14:20:43;0.40;99.90
1297;DHT22;641;48.492;9.184;2024-01-15T14:23:09;0.40;99.90
1297;DHT22;641;48.492;9.184;2024-01-15T14:25:35;0.40;99.90
1297;DHT22;641;48.492;9.184;2024-01-15T14:28:00;0.40;99.90
1297;DHT22;641;48.492;9.184;2024-01-15T14:30:26;0.30;99.90
1297;DHT22;641;48.492;9.184;2024-01-15T14:32:51;0.30;99.90
1297;DHT22;641;48.492;9.184;2024-01-15T14:35:17;0.30;99.90
1297;DHT22;641;48.492;9.184;2024-01-15T14:37:42;0.30;99.90
1297;DHT22;641;48.492;9.184;2024-01-15T14:40:08;0.40;99.90
1297;DHT22;641;48.492;9.184;2024-01-15T14:42:35;0.40;99.90
1297;DHT22;641;48.492;9.184;2024-01-15T14:45:02;0.40;99.90
1297;DHT22;641;48.492;9.184;2024-01-15T14:47:28;0.40;99.90
1297;DHT22;641;48.492;9.184;2024-01-15T14:49:54;0.30;99.90
1297;DHT22;641;48.492;9.184;2024-01-15T14:52:22;0.30;99.90
1297;DHT22;641;48.492;9.184;2024-01-15T14:54:47;0.30;99.90
1297;DHT22;641;48.492;9.184;2024-01-15T14:57:13;0.30;99.90
1297;DHT22;641;48.492;9.184;2024-01-15T14:59:38;0.30;99.90
1297;DHT22;641;48.492;9.184;2024-01-15T15:02:04;0.30;99.90
1297;DHT22;641;48.492;9.184;2024-01-15T15:04:30;0.20;99.90
1297;DHT22;641;48.492;9.184;2024-01-15T15:06:56;0.10;99.90
1297;DHT22;641;48.492;9.184;2024-01-15T15:09:22;0.10;99.90
1297;DHT22;641;48.492;9.184;2024-01-15T15:11:47;0.20;99.90
1297;DHT22;641;48.492;9.184;2024-01-15T15:14:13;0.10;99.90
1297;DHT22;641;48.492;9.184;2024-01-15T15:16:38;0.20;99.90
1297;DHT22;641;48.492;9.184;2024-01-15T15:19:04;0.10;99.90
1297;DHT22;641;48.492;9.184;2024-01-15T15:21:30;0.10;99.90
1297;DHT22;641;48.492;9.184;2024-01-15T15:23:55;0.10;99.90
1297;DHT22;641;48.492;9.184;2024-01-15T15:26:21;0.10;99.90
1297;DHT22;641;48.492;9.184;2024-01-15T15:28:46;0.00;99.90
1297;DHT22;641;48.492;9.184;2024-01-15T15:31:12;0.00;99.90
1297;DHT22;641;48.492;9.184;2024-01-15T15:33:37;0.00;99.90
1297;DHT22;641;48.492;9.184;2024-01-15T15:36:04;0.00;99.90
1297;DHT22;641;48.492;9.184;2024-01-15T15:38:31;0.00;99.90
1297;DHT22;641;48.492;9.184;2024-01-15T15:40:57;0.00;99.90
1297;DHT22;641;48.492;9.184;2024-01-15T15:43:22;-0.10;99.90
1297;DHT22;641;48.492;9.184;2024-01-15T15:45:48;-0.10;99.90
1297;DHT22;641;48.492;9.184;2024-01-15T15:48:14;-0.20;99.90
1297;DHT22;641;48.492;9.184;2024-01-15T15:50:39;-0.20;99.90
1297;DHT22;641;48.492;9.184;2024-01-15T15:53:05;-0.20;99.90
1297;DHT22;641;48.492;9.184;2024-01-15T15:55:30;-0.10;99.90
1297;DHT22;641;48.492;9.184;2024-01-15T15:57:57;-0.10;99.90
1297;DHT22;641;48.492;9.184;2024-01-15T16:00:22;-0.20;99.90
1297;DHT22;641;48.492;9.184;2024-01-15T16:02:48;-0.20;99.90
1297;DHT22;641;48.492;9.184;2024-01-15T16:05:13;-0.20;99.90
1297;DHT22;641;48.492;9.184;2024-01-15T16:07:39;-0.20;99.90
1297;DHT22;641;48.492;9.184;2024-01-15T16:10:05;-0.10;99.90
1297;DHT22;641;48.492;9.184;2024-01-15T16:12:31;-0.10;99.90
1297;DHT22;641;48.492;9.184;2024-01-15T16:15:00;-0.10;99.90
1297;DHT22;641;48.492;9.184;2024-01-15T16:17:25;-0.10;99.90
1297;DHT22;641;48.492;9.184;2024-01-15T16:19:51;-0.10;99.90